Time;durP1;ratioP1;P1;durP2;ratioP2;P2;SDS_P1;SDS_P2;PMS_P1;PMS_P2;Temp;Humidity;BMP_temperature;BMP_pressure;BME280_temperature;BME280_humidity;BME280_pressure;Samples;Min_cycle;Max_cycle;Signal;HPM_P1;HPM_P2
2023/09/11 00:00:27;;;;;;;40.42;25.00;;;20.30;99.90;;;;;;4981833;28;20041;-61
2023/09/11 00:02:53;;;;;;;43.40;24.77;;;20.30;99.90;;;;;;4981968;28;20473;-63
2023/09/11 00:05:18;;;;;;;50.92;25.83;;;20.30;99.90;;;;;;4978173;28;20037;-62
2023/09/11 00:07:44;;;;;;;40.15;25.10;;;20.30;99.90;;;;;;4982698;28;20124;-63
2023/09/11 00:10:09;;;;;;;40.40;23.60;;;20.20;99.90;;;;;;4983874;28;20026;-61
2023/09/11 00:12:35;;;;;;;38.15;23.23;;;20.20;99.90;;;;;;4978016;28;20524;-63
2023/09/11 00:15:01;;;;;;;36.67;24.27;;;20.20;99.90;;;;;;4962549;28;20033;-63
2023/09/11 00:17:26;;;;;;;37.58;24.05;;;20.20;99.90;;;;;;4977889;28;20034;-62
2023/09/11 00:19:53;;;;;;;30.75;21.17;;;20.20;99.90;;;;;;4981961;28;20046;-63
2023/09/11 00:22:19;;;;;;;38.30;22.55;;;20.20;99.90;;;;;;4995468;28;20042;-63
2023/09/11 00:24:44;;;;;;;36.22;21.23;;;20.20;99.90;;;;;;4983728;28;20047;-63
2023/09/11 00:27:10;;;;;;;36.70;22.10;;;20.20;99.90;;;;;;4977101;28;20049;-63
2023/09/11 00:29:35;;;;;;;34.03;22.38;;;20.20;99.90;;;;;;4983181;28;20030;-63
2023/09/11 00:32:01;;;;;;;39.17;23.90;;;20.10;99.90;;;;;;4993750;28;20022;-62
2023/09/11 00:34:29;;;;;;;44.55;24.50;;;20.00;99.90;;;;;;4981764;28;20022;-62
2023/09/11 00:36:55;;;;;;;45.83;24.92;;;19.90;99.90;;;;;;4985305;28;20030;-62
2023/09/11 00:39:21;;;;;;;40.60;24.88;;;19.90;99.90;;;;;;4980953;28;20045;-62
2023/09/11 00:41:47;;;;;;;38.75;26.83;;;19.80;99.90;;;;;;4979758;28;20042;-63
2023/09/11 00:44:12;;;;;;;53.13;24.70;;;19.80;99.90;;;;;;4982356;28;20026;-63
2023/09/11 00:46:38;;;;;;;34.38;24.48;;;19.80;99.90;;;;;;4985063;28;20034;-63
2023/09/11 00:49:06;;;;;;;31.80;22.45;;;19.80;99.90;;;;;;4981018;28;20460;-62
2023/09/11 00:51:32;;;;;;;36.10;23.40;;;19.80;99.90;;;;;;4998084;28;20491;-63
2023/09/11 00:53:57;;;;;;;31.52;22.08;;;19.90;99.90;;;;;;4976780;28;20037;-62
2023/09/11 00:56:23;;;;;;;33.88;21.67;;;19.90;99.90;;;;;;4977355;28;20034;-62
2023/09/11 00:58:49;;;;;;;33.85;20.70;;;19.90;99.90;;;;;;4996653;28;20034;-62
2023/09/11 01:01:15;;;;;;;33.03;23.13;;;20.00;99.90;;;;;;4987073;28;20033;-62
2023/09/11 01:03:41;;;;;;;33.45;21.77;;;19.90;99.90;;;;;;4982317;28;20018;-62
2023/09/11 01:06:07;;;;;;;31.20;20.77;;;19.90;99.90;;;;;;4980096;28;20076;-62
2023/09/11 01:08:33;;;;;;;36.92;22.48;;;19.90;99.90;;;;;;4976908;28;20033;-62
2023/09/11 01:10:58;;;;;;;33.45;21.63;;;19.80;99.90;;;;;;4961645;28;20030;-63
2023/09/11 01:13:24;;;;;;;32.40;21.90;;;19.80;99.90;;;;;;4984969;28;20030;-62
2023/09/11 01:16:05;;;;;;;35.58;23.17;;;19.70;99.90;;;;;;5000099;28;20022;-62
2023/09/11 01:18:46;;;;;;;31.67;21.95;;;19.60;99.90;;;;;;4974769;28;20366;-63
2023/09/11 01:22:01;;;;;;;33.97;23.08;;;19.50;99.90;;;;;;4995897;28;20010;-62
2023/09/11 01:24:29;;;;;;;36.53;22.23;;;19.50;99.90;;;;;;4973000;28;20060;-62
2023/09/11 01:27:42;;;;;;;35.53;22.48;;;19.50;99.90;;;;;;4983773;28;20022;-62
2023/09/11 01:30:10;;;;;;;35.72;23.05;;;19.40;99.90;;;;;;4946707;28;20031;-62
2023/09/11 01:32:37;;;;;;;34.28;22.17;;;19.40;99.90;;;;;;4982627;28;20041;-63
2023/09/11 01:35:03;;;;;;;43.25;23.10;;;19.40;99.90;;;;;;4982532;28;20535;-63
2023/09/11 01:37:30;;;;;;;35.78;23.25;;;19.40;99.90;;;;;;5000511;28;20058;-63
2023/09/11 01:39:55;;;;;;;40.63;24.30;;;19.30;99.90;;;;;;4987489;28;20381;-63
2023/09/11 01:42:30;;;;;;;40.42;23.83;;;19.30;99.90;;;;;;5002021;28;20032;-63
2023/09/11 01:44:58;;;;;;;35.90;23.52;;;19.20;99.90;;;;;;4997714;28;20065;-63
2023/09/11 01:47:25;;;;;;;34.83;22.63;;;19.20;99.90;;;;;;4982482;28;20018;-62
2023/09/11 01:49:52;;;;;;;39.63;23.52;;;19.20;99.90;;;;;;4984526;28;20126;-64
2023/09/11 01:52:19;;;;;;;38.75;24.80;;;19.20;99.90;;;;;;4986954;28;20030;-63
2023/09/11 01:54:44;;;;;;;45.70;23.95;;;19.20;99.90;;;;;;4982397;28;20818;-60
2023/09/11 01:57:10;;;;;;;35.13;23.50;;;19.20;99.90;;;;;;4982857;28;20758;-62
2023/09/11 01:59:36;;;;;;;38.22;23.88;;;19.20;99.90;;;;;;4983516;28;20035;-60
2023/09/11 02:02:01;;;;;;;34.28;23.88;;;19.20;99.90;;;;;;4985979;28;20627;-59
2023/09/11 02:04:27;;;;;;;34.30;23.63;;;19.10;99.90;;;;;;4983845;28;20038;-63
2023/09/11 02:06:52;;;;;;;29.27;21.60;;;19.20;99.90;;;;;;4984851;28;20022;-60
2023/09/11 02:09:18;;;;;;;34.35;23.50;;;19.20;99.90;;;;;;4985136;28;20027;-63
2023/09/11 02:11:44;;;;;;;32.60;21.35;;;19.20;99.90;;;;;;4989434;28;20038;-63
2023/09/11 02:14:09;;;;;;;33.78;22.52;;;19.20;99.90;;;;;;4998897;28;20034;-62
2023/09/11 02:16:35;;;;;;;31.48;21.70;;;19.20;99.90;;;;;;4983813;28;20069;-63
2023/09/11 02:19:00;;;;;;;41.05;23.27;;;19.20;99.90;;;;;;5002291;28;20030;-62
2023/09/11 02:21:26;;;;;;;29.95;20.67;;;19.20;99.90;;;;;;4985833;28;20057;-63
2023/09/11 02:23:51;;;;;;;35.33;22.33;;;19.10;99.90;;;;;;4984113;28;20200;-62
2023/09/11 02:26:17;;;;;;;35.15;23.33;;;19.00;99.90;;;;;;4986422;28;20065;-63
2023/09/11 02:28:42;;;;;;;38.35;23.63;;;18.90;99.90;;;;;;4982289;28;20092;-63
2023/09/11 02:31:08;;;;;;;35.65;21.38;;;18.90;99.90;;;;;;4986380;28;20041;-62
2023/09/11 02:33:34;;;;;;;40.53;23.33;;;18.80;99.90;;;;;;4983489;28;20104;-63
2023/09/11 02:35:59;;;;;;;32.45;22.10;;;18.80;99.90;;;;;;4983898;28;20018;-62
2023/09/11 02:38:25;;;;;;;35.33;23.38;;;18.80;99.90;;;;;;4985940;28;20052;-62
2023/09/11 02:40:51;;;;;;;39.40;22.00;;;18.80;99.90;;;;;;4987440;28;20101;-63
2023/09/11 02:43:17;;;;;;;39.53;22.70;;;18.80;99.90;;;;;;4996349;28;20420;-63
2023/09/11 02:45:43;;;;;;;46.60;24.48;;;18.80;99.90;;;;;;5003528;28;20022;-63
2023/09/11 02:48:09;;;;;;;36.15;23.48;;;18.80;99.90;;;;;;4983711;28;20560;-63
2023/09/11 02:50:35;;;;;;;39.50;22.73;;;18.80;99.90;;;;;;4985624;28;21503;-62
2023/09/11 02:53:00;;;;;;;45.30;23.90;;;18.80;99.90;;;;;;4964875;28;20030;-63
2023/09/11 02:55:26;;;;;;;41.42;23.75;;;18.80;99.90;;;;;;4979028;28;20938;-62
2023/09/11 02:57:51;;;;;;;34.92;21.60;;;18.80;99.90;;;;;;4982707;28;20048;-62
2023/09/11 03:00:17;;;;;;;31.40;21.88;;;18.80;99.90;;;;;;4981501;28;20394;-63
2023/09/11 03:02:42;;;;;;;41.53;22.10;;;18.80;99.90;;;;;;4983818;28;20104;-63
2023/09/11 03:05:08;;;;;;;34.72;22.45;;;18.80;99.90;;;;;;5000708;28;20511;-62
2023/09/11 03:07:34;;;;;;;32.17;22.65;;;18.80;99.90;;;;;;4984779;28;20121;-63
2023/09/11 03:09:59;;;;;;;35.90;23.15;;;18.80;99.90;;;;;;4982396;28;20038;-63
2023/09/11 03:12:25;;;;;;;33.78;21.17;;;18.70;99.90;;;;;;4982678;28;20030;-63
2023/09/11 03:14:52;;;;;;;33.00;21.35;;;18.80;99.90;;;;;;4989922;28;20030;-63
2023/09/11 03:17:18;;;;;;;34.40;22.48;;;18.70;99.90;;;;;;4988152;28;20030;-62
2023/09/11 03:19:44;;;;;;;35.30;21.95;;;18.70;99.90;;;;;;4990567;28;20440;-63
2023/09/11 03:22:10;;;;;;;37.20;22.55;;;18.70;99.90;;;;;;4988642;28;20539;-62
2023/09/11 03:24:35;;;;;;;43.97;22.33;;;18.60;99.90;;;;;;4988929;28;20042;-62
2023/09/11 03:27:01;;;;;;;37.45;21.48;;;18.60;99.90;;;;;;4987996;28;20033;-63
2023/09/11 03:29:26;;;;;;;30.50;21.05;;;18.60;99.90;;;;;;4999191;28;20031;-63
2023/09/11 03:31:52;;;;;;;34.05;20.20;;;18.50;99.90;;;;;;5001594;28;20042;-62
2023/09/11 03:34:17;;;;;;;35.05;22.10;;;18.50;99.90;;;;;;4988281;28;20030;-62
2023/09/11 03:36:43;;;;;;;35.53;21.77;;;18.50;99.90;;;;;;4993124;28;20058;-62
2023/09/11 03:39:08;;;;;;;36.42;22.15;;;18.50;99.90;;;;;;4987499;28;20085;-62
2023/09/11 03:41:34;;;;;;;34.60;22.02;;;18.50;99.90;;;;;;4988562;28;20052;-63
2023/09/11 03:44:00;;;;;;;31.45;20.58;;;18.50;99.90;;;;;;4988763;28;20455;-61
2023/09/11 03:46:25;;;;;;;38.88;22.10;;;18.40;99.90;;;;;;4955515;28;20041;-63
2023/09/11 03:48:51;;;;;;;36.70;21.73;;;18.40;99.90;;;;;;5000547;28;20034;-62
2023/09/11 03:51:16;;;;;;;39.00;21.75;;;18.30;99.90;;;;;;4998317;28;20033;-61
2023/09/11 03:53:43;;;;;;;38.35;22.23;;;18.30;99.90;;;;;;4983419;28;20045;-63
2023/09/11 03:56:10;;;;;;;44.15;22.30;;;18.30;99.90;;;;;;4999643;28;20061;-62
2023/09/11 03:58:36;;;;;;;33.85;21.40;;;18.20;99.90;;;;;;4984086;28;20030;-59
2023/09/11 04:01:02;;;;;;;37.88;24.13;;;18.30;99.90;;;;;;4986166;28;20085;-60
2023/09/11 04:03:27;;;;;;;30.67;21.20;;;18.30;99.90;;;;;;4980585;28;20034;-62
2023/09/11 04:05:53;;;;;;;42.22;22.88;;;18.30;99.90;;;;;;4984988;28;20022;-62
2023/09/11 04:08:18;;;;;;;39.80;22.20;;;18.30;99.90;;;;;;4983090;28;20058;-60
2023/09/11 04:10:44;;;;;;;36.67;22.80;;;18.30;99.90;;;;;;4993997;28;20465;-61
2023/09/11 04:13:10;;;;;;;36.10;22.60;;;18.30;99.90;;;;;;4987568;28;20033;-63
2023/09/11 04:15:36;;;;;;;40.30;21.80;;;18.30;99.90;;;;;;5002144;28;20450;-63
2023/09/11 04:18:02;;;;;;;41.35;23.20;;;18.30;99.90;;;;;;4996029;28;20026;-62
2023/09/11 04:20:33;;;;;;;33.53;21.73;;;18.20;99.90;;;;;;4971026;28;20026;-62
2023/09/11 04:22:59;;;;;;;39.78;21.90;;;18.20;99.90;;;;;;4985718;28;20406;-62
2023/09/11 04:25:25;;;;;;;34.85;21.80;;;18.20;99.90;;;;;;4983126;28;20056;-63
2023/09/11 04:27:51;;;;;;;36.50;21.10;;;18.20;99.90;;;;;;4984464;28;20022;-61
2023/09/11 04:30:17;;;;;;;34.90;21.23;;;18.20;99.90;;;;;;4984321;28;20038;-62
2023/09/11 04:32:44;;;;;;;47.13;22.05;;;18.20;99.90;;;;;;4984943;28;20030;-61
2023/09/11 04:35:09;;;;;;;30.50;20.85;;;18.20;99.90;;;;;;4986114;28;20081;-61
2023/09/11 04:37:36;;;;;;;43.13;21.92;;;18.20;99.90;;;;;;4997751;28;20397;-62
2023/09/11 04:40:05;;;;;;;33.05;20.67;;;18.10;99.90;;;;;;4999444;28;20077;-57
2023/09/11 04:42:30;;;;;;;41.03;21.40;;;18.10;99.90;;;;;;4997532;28;20392;-59
2023/09/11 04:44:59;;;;;;;33.20;21.00;;;18.10;99.90;;;;;;4996867;28;20109;-57
2023/09/11 04:47:31;;;;;;;38.70;22.60;;;18.10;99.90;;;;;;4975974;28;20755;-58
2023/09/11 04:49:57;;;;;;;40.42;22.73;;;18.00;99.90;;;;;;4999051;28;20506;-55
2023/09/11 04:52:23;;;;;;;35.92;20.40;;;18.00;99.90;;;;;;4977200;28;20062;-58
2023/09/11 04:54:48;;;;;;;37.47;20.83;;;18.00;99.90;;;;;;4978653;28;20122;-57
2023/09/11 04:57:14;;;;;;;28.85;19.95;;;18.00;99.90;;;;;;4981843;28;20061;-59
2023/09/11 04:59:41;;;;;;;35.28;19.80;;;17.90;99.90;;;;;;4983556;28;20034;-57
2023/09/11 05:02:10;;;;;;;31.40;19.60;;;18.00;99.90;;;;;;4977283;28;20030;-57
2023/09/11 05:04:36;;;;;;;37.15;19.52;;;18.00;99.90;;;;;;4975908;28;20496;-56
2023/09/11 05:07:02;;;;;;;34.50;19.40;;;18.00;99.90;;;;;;4981719;28;20066;-59
2023/09/11 05:09:29;;;;;;;36.15;18.92;;;18.00;99.90;;;;;;4992944;28;20034;-58
2023/09/11 05:11:54;;;;;;;34.17;18.95;;;18.00;99.90;;;;;;4984917;28;20026;-59
2023/09/11 05:14:20;;;;;;;34.63;18.38;;;18.00;99.90;;;;;;4986996;28;20033;-59
2023/09/11 05:16:45;;;;;;;27.17;18.85;;;18.00;99.90;;;;;;4980014;28;20030;-60
2023/09/11 05:19:11;;;;;;;41.55;18.27;;;18.00;99.90;;;;;;4981230;28;20030;-60
2023/09/11 05:21:36;;;;;;;35.13;19.30;;;18.00;99.90;;;;;;4983922;28;20105;-59
2023/09/11 05:24:06;;;;;;;35.75;19.05;;;18.00;99.90;;;;;;4986937;28;20029;-56
2023/09/11 05:26:32;;;;;;;29.00;18.52;;;18.00;99.90;;;;;;4984560;28;20440;-57
2023/09/11 05:28:57;;;;;;;27.67;18.90;;;18.00;99.90;;;;;;4983311;28;20034;-59
2023/09/11 05:31:23;;;;;;;25.45;17.15;;;17.90;99.90;;;;;;4980332;28;20030;-54
2023/09/11 05:33:49;;;;;;;29.27;18.58;;;17.90;99.90;;;;;;4999665;28;20113;-58
2023/09/11 05:36:15;;;;;;;35.58;19.25;;;17.90;99.90;;;;;;4998190;28;20428;-60
2023/09/11 05:38:40;;;;;;;35.25;18.00;;;17.90;99.90;;;;;;4986830;28;20038;-60
2023/09/11 05:41:06;;;;;;;31.65;19.48;;;17.90;99.90;;;;;;4986380;28;20022;-57
2023/09/11 05:43:32;;;;;;;30.67;18.60;;;18.00;99.90;;;;;;4989772;28;20030;-59
2023/09/11 05:45:57;;;;;;;35.35;17.88;;;17.90;99.90;;;;;;4986540;28;20038;-58
2023/09/11 05:48:24;;;;;;;37.75;17.92;;;18.00;99.90;;;;;;4984279;28;20489;-59
2023/09/11 05:50:49;;;;;;;27.17;17.63;;;18.10;99.90;;;;;;4987136;28;20030;-57
2023/09/11 05:53:15;;;;;;;32.53;17.20;;;18.00;99.90;;;;;;4986987;28;20418;-59
2023/09/11 05:55:40;;;;;;;29.60;16.88;;;18.10;99.90;;;;;;4984826;28;20516;-57
2023/09/11 05:58:06;;;;;;;31.58;16.92;;;18.10;99.90;;;;;;4989382;28;20034;-59
2023/09/11 06:00:32;;;;;;;27.08;16.70;;;18.10;99.90;;;;;;4987580;28;20366;-60
2023/09/11 06:02:57;;;;;;;28.63;18.73;;;18.10;99.90;;;;;;4988760;28;20022;-58
2023/09/11 06:05:25;;;;;;;39.45;16.77;;;18.20;99.90;;;;;;4987388;28;20054;-59
2023/09/11 06:07:50;;;;;;;27.77;17.27;;;18.20;99.90;;;;;;4987396;28;20458;-58
2023/09/11 06:10:16;;;;;;;32.17;17.75;;;18.20;99.90;;;;;;4986011;28;20129;-59
2023/09/11 06:12:42;;;;;;;26.90;15.93;;;18.30;99.90;;;;;;4979917;28;20571;-58
2023/09/11 06:15:07;;;;;;;29.23;16.27;;;18.30;99.90;;;;;;4987018;28;20026;-59
2023/09/11 06:17:33;;;;;;;30.25;14.98;;;18.40;99.90;;;;;;4985728;28;20031;-60
2023/09/11 06:19:59;;;;;;;29.60;16.33;;;18.40;99.90;;;;;;4986783;28;20064;-59
2023/09/11 06:22:24;;;;;;;35.80;16.48;;;18.50;99.90;;;;;;4976946;28;20027;-60
2023/09/11 06:24:50;;;;;;;26.05;15.77;;;18.50;99.90;;;;;;4983376;28;20108;-59
2023/09/11 06:27:16;;;;;;;26.75;15.48;;;18.60;99.90;;;;;;4986992;28;20054;-59
2023/09/11 06:29:41;;;;;;;23.55;14.35;;;18.60;99.90;;;;;;5000852;28;20036;-56
2023/09/11 06:32:07;;;;;;;25.98;14.15;;;18.70;99.90;;;;;;4989649;28;20454;-59
2023/09/11 06:34:33;;;;;;;24.30;12.90;;;18.80;99.90;;;;;;4990025;28;20058;-57
2023/09/11 06:36:59;;;;;;;18.85;13.15;;;18.80;99.90;;;;;;4988109;28;20908;-55
2023/09/11 06:39:25;;;;;;;26.33;14.57;;;18.80;99.90;;;;;;4989004;28;20045;-58
2023/09/11 06:41:50;;;;;;;28.88;13.85;;;18.90;99.90;;;;;;4991615;28;20094;-57
2023/09/11 06:44:16;;;;;;;32.85;13.35;;;19.00;99.90;;;;;;4986389;28;20022;-55
2023/09/11 06:46:41;;;;;;;27.83;12.85;;;19.00;99.90;;;;;;4984890;28;20027;-54
2023/09/11 06:49:07;;;;;;;32.58;14.27;;;19.10;99.90;;;;;;4987832;28;20089;-57
2023/09/11 06:51:33;;;;;;;26.00;13.73;;;19.10;99.90;;;;;;4988838;28;20385;-54
2023/09/11 06:53:59;;;;;;;27.33;12.40;;;19.20;99.90;;;;;;4987290;28;20034;-59
2023/09/11 06:56:25;;;;;;;23.05;12.52;;;19.30;99.90;;;;;;4987822;28;20116;-58
2023/09/11 06:58:50;;;;;;;27.95;13.55;;;19.40;99.90;;;;;;4986349;28;20081;-59
2023/09/11 07:01:16;;;;;;;28.38;12.30;;;19.40;99.90;;;;;;4985946;28;20069;-57
2023/09/11 07:03:41;;;;;;;18.42;10.82;;;19.50;99.90;;;;;;4989463;28;20022;-58
2023/09/11 07:06:07;;;;;;;33.40;11.98;;;19.60;99.90;;;;;;4990885;28;20019;-59
2023/09/11 07:08:33;;;;;;;29.20;11.80;;;19.60;99.90;;;;;;4989094;28;20088;-59
2023/09/11 07:10:58;;;;;;;21.15;11.98;;;19.70;99.90;;;;;;4990056;28;20065;-60
2023/09/11 07:13:24;;;;;;;23.77;11.43;;;19.80;99.90;;;;;;4988252;28;20030;-57
2023/09/11 07:15:59;;;;;;;24.60;11.10;;;19.90;99.90;;;;;;4991430;28;20046;-60
2023/09/11 07:18:26;;;;;;;17.45;10.10;;;20.00;99.90;;;;;;4990045;28;20242;-59
2023/09/11 07:20:52;;;;;;;20.15;10.95;;;20.10;99.90;;;;;;4988110;28;20575;-56
2023/09/11 07:23:23;;;;;;;22.77;12.73;;;20.10;99.90;;;;;;4979491;28;20607;-59
2023/09/11 07:25:51;;;;;;;35.85;12.57;;;20.20;99.90;;;;;;4985926;28;20496;-59
2023/09/11 07:28:16;;;;;;;27.27;11.38;;;20.30;99.90;;;;;;4984385;28;20412;-57
2023/09/11 07:30:43;;;;;;;25.05;11.18;;;20.40;99.90;;;;;;4984763;28;20041;-57
2023/09/11 07:33:09;;;;;;;19.48;10.38;;;20.40;99.90;;;;;;4986355;28;20515;-58
2023/09/11 07:35:34;;;;;;;24.35;9.95;;;20.50;99.90;;;;;;4980793;28;20031;-57
2023/09/11 07:38:00;;;;;;;23.00;9.95;;;20.70;99.90;;;;;;4985770;28;20382;-56
2023/09/11 07:40:25;;;;;;;24.25;11.95;;;20.70;99.90;;;;;;4982099;28;20030;-54
2023/09/11 07:42:54;;;;;;;27.23;9.60;;;20.80;99.90;;;;;;4988022;28;20100;-56
2023/09/11 07:45:20;;;;;;;21.05;9.75;;;20.90;99.90;;;;;;4985182;28;20024;-58
2023/09/11 07:47:45;;;;;;;22.60;9.32;;;21.00;99.90;;;;;;4981514;28;20042;-59
2023/09/11 07:50:11;;;;;;;22.17;9.95;;;21.00;99.90;;;;;;4988060;28;20037;-59
2023/09/11 07:52:36;;;;;;;26.77;9.18;;;21.10;99.90;;;;;;4985144;28;20489;-58
2023/09/11 07:55:03;;;;;;;29.80;10.68;;;21.20;99.90;;;;;;4985365;28;20382;-59
2023/09/11 07:57:30;;;;;;;17.85;8.90;;;21.30;99.90;;;;;;4985624;28;20030;-56
2023/09/11 07:59:56;;;;;;;23.08;10.00;;;21.30;99.90;;;;;;4987771;28;20638;-57
2023/09/11 08:02:21;;;;;;;22.45;9.48;;;21.40;99.90;;;;;;4985616;28;20088;-59
2023/09/11 08:04:47;;;;;;;21.00;9.73;;;;;;;;;;4988476;28;20034;-59
2023/09/11 08:07:13;;;;;;;23.85;8.70;;;21.50;99.90;;;;;;4981505;28;20030;-58
2023/09/11 08:09:39;;;;;;;18.08;8.32;;;;;;;;;;4984650;28;20046;-58
2023/09/11 08:12:05;;;;;;;18.17;9.05;;;;;;;;;;4987039;28;20026;-59
2023/09/11 08:14:31;;;;;;;25.25;8.93;;;;;;;;;;4985650;28;20045;-60
2023/09/11 08:16:57;;;;;;;19.23;8.75;;;;;;;;;;4988649;28;20416;-55
2023/09/11 08:19:23;;;;;;;17.50;8.27;;;;;;;;;;4987099;28;20475;-57
2023/09/11 08:21:49;;;;;;;19.58;9.10;;;;;;;;;;4988645;28;20527;-57
2023/09/11 08:24:15;;;;;;;18.88;8.85;;;;;;;;;;4988836;28;20429;-56
2023/09/11 08:26:41;;;;;;;19.48;8.88;;;;;;;;;;4988766;28;20038;-55
2023/09/11 08:29:10;;;;;;;23.08;9.13;;;;;;;;;;4987909;28;20022;-57
2023/09/11 08:31:36;;;;;;;18.65;8.15;;;;;;;;;;4989924;28;20019;-60
2023/09/11 08:34:02;;;;;;;25.98;9.40;;;;;;;;;;4989199;28;20088;-59
2023/09/11 08:36:28;;;;;;;28.35;8.93;;;;;;;;;;4989430;28;20476;-60
2023/09/11 08:38:54;;;;;;;22.33;8.73;;;;;;;;;;4988363;28;20026;-59
2023/09/11 08:41:23;;;;;;;24.27;8.07;;;;;;;;;;4988619;28;20034;-59
2023/09/11 08:43:49;;;;;;;17.23;7.15;;;;;;;;;;4987767;28;20125;-59
2023/09/11 08:46:15;;;;;;;18.08;8.10;;;;;;;;;;4986904;28;20698;-60
2023/09/11 08:48:44;;;;;;;23.48;8.25;;;;;;;;;;4986839;28;20084;-59
2023/09/11 08:51:12;;;;;;;15.07;8.00;;;;;;;;;;4986758;28;20098;-58
2023/09/11 08:53:40;;;;;;;18.48;8.35;;;;;;;;;;4983969;28;20472;-59
2023/09/11 08:56:06;;;;;;;25.45;8.52;;;;;;;;;;4988093;28;20101;-59
2023/09/11 08:58:33;;;;;;;17.17;7.97;;;21.70;99.90;;;;;;4986395;28;20022;-59
2023/09/11 09:01:00;;;;;;;24.13;8.43;;;23.80;99.90;;;;;;4987422;28;20033;-58
2023/09/11 09:03:27;;;;;;;23.45;7.45;;;;;;;;;;4985674;28;20045;-58
2023/09/11 09:05:54;;;;;;;19.15;8.25;;;;;;;;;;4988352;28;20033;-59
2023/09/11 09:08:20;;;;;;;21.83;8.70;;;;;;;;;;4986748;28;20476;-58
2023/09/11 09:10:48;;;;;;;26.88;8.52;;;;;;;;;;4980185;28;20758;-56
2023/09/11 09:13:14;;;;;;;17.73;7.97;;;;;;;;;;4986829;28;20030;-57
2023/09/11 09:15:41;;;;;;;15.10;7.22;;;23.90;99.90;;;;;;4983912;28;20041;-59
2023/09/11 09:18:08;;;;;;;24.80;8.20;;;;;;;;;;4984698;28;20397;-59
2023/09/11 09:20:34;;;;;;;30.40;7.43;;;;;;;;;;4985466;28;22574;-59
2023/09/11 09:23:03;;;;;;;16.83;7.80;;;;;;;;;;4986484;28;20027;-59
2023/09/11 09:25:29;;;;;;;18.80;8.15;;;;;;;;;;4982898;28;20141;-63
2023/09/11 09:27:55;;;;;;;24.30;14.50;;;;;;;;;;4982047;28;20110;-60
2023/09/11 09:30:23;;;;;;;21.50;9.20;;;;;;;;;;5000585;28;20415;-58
2023/09/11 09:32:49;;;;;;;21.55;7.30;;;;;;;;;;4987303;28;20058;-59
2023/09/11 09:35:19;;;;;;;21.92;7.10;;;24.60;99.90;;;;;;4981521;28;20488;-60
2023/09/11 09:37:55;;;;;;;26.98;7.72;;;25.80;99.90;;;;;;4995304;28;20109;-59
2023/09/11 09:40:34;;;;;;;19.75;8.18;;;25.90;99.90;;;;;;4984175;28;20370;-59
2023/09/11 09:43:05;;;;;;;13.00;7.80;;;26.10;99.90;;;;;;4987631;28;20046;-59
2023/09/11 09:45:35;;;;;;;21.83;7.20;;;26.20;99.90;;;;;;4988024;28;20489;-59
2023/09/11 09:48:18;;;;;;;19.52;7.03;;;26.40;99.90;;;;;;4988323;28;20030;-60
2023/09/11 09:50:49;;;;;;;23.52;8.00;;;26.50;99.90;;;;;;4989145;28;20045;-60
2023/09/11 09:53:26;;;;;;;21.42;7.43;;;26.60;99.90;;;;;;4988757;28;20473;-60
2023/09/11 09:55:53;;;;;;;19.48;8.80;;;26.90;99.90;;;;;;4986545;28;20030;-60
2023/09/11 09:58:29;;;;;;;22.15;6.50;;;26.90;99.90;;;;;;4985565;28;20424;-57
2023/09/11 10:01:09;;;;;;;17.75;6.15;;;;;;;;;;4984626;28;20030;-59
2023/09/11 10:03:53;;;;;;;22.45;7.15;;;;;;;;;;4987344;28;20026;-59
2023/09/11 10:06:26;;;;;;;18.27;6.55;;;;;;;;;;4987582;28;20029;-57
2023/09/11 10:09:12;;;;;;;17.08;6.57;;;;;;;;;;4988981;28;20033;-60
2023/09/11 10:11:38;;;;;;;16.42;6.65;;;;;;;;;;4990797;28;20027;-56
2023/09/11 10:14:05;;;;;;;22.77;7.68;;;;;;;;;;4990658;28;20085;-60
2023/09/11 10:16:31;;;;;;;19.85;8.48;;;;;;;;;;4988910;28;20030;-60
2023/09/11 10:18:58;;;;;;;23.48;7.18;;;;;;;;;;4991392;28;20030;-60
2023/09/11 10:21:25;;;;;;;19.38;6.57;;;;;;;;;;4990825;28;20503;-60
2023/09/11 10:23:52;;;;;;;19.77;7.05;;;;;;;;;;4990829;28;20030;-60
2023/09/11 10:26:23;;;;;;;21.35;5.85;;;;;;;;;;4987914;28;20102;-59
2023/09/11 10:28:50;;;;;;;20.42;7.10;;;;;;;;;;4988202;28;20109;-59
2023/09/11 10:31:16;;;;;;;21.08;6.97;;;;;;;;;;4988270;28;20052;-60
2023/09/11 10:33:43;;;;;;;20.20;7.35;;;;;;;;;;4986803;28;20109;-60
2023/09/11 10:36:12;;;;;;;11.57;6.38;;;;;;;;;;4989843;28;20089;-60
2023/09/11 10:38:38;;;;;;;21.80;7.53;;;;;;;;;;4986143;28;20062;-60
2023/09/11 10:41:06;;;;;;;17.92;7.30;;;27.10;99.90;;;;;;4987980;28;20531;-56
2023/09/11 10:43:32;;;;;;;18.10;7.03;;;;;;;;;;4989057;28;20030;-59
2023/09/11 10:46:14;;;;;;;14.27;6.50;;;;;;;;;;4986786;28;20547;-60
2023/09/11 10:48:40;;;;;;;14.48;7.22;;;;;;;;;;4989548;28;20023;-60
2023/09/11 10:51:05;;;;;;;18.17;6.30;;;;;;;;;;4988823;28;20057;-59
2023/09/11 10:53:32;;;;;;;23.50;7.00;;;;;;;;;;4988839;28;20057;-59
2023/09/11 10:56:01;;;;;;;22.33;7.30;;;;;;;;;;4986953;28;20037;-60
2023/09/11 10:58:28;;;;;;;23.02;6.43;;;;;;;;;;4985130;28;20038;-59
2023/09/11 11:00:55;;;;;;;21.27;6.95;;;;;;;;;;4988358;28;20112;-59
2023/09/11 11:03:21;;;;;;;15.10;6.80;;;;;;;;;;4988614;28;20026;-59
2023/09/11 11:05:47;;;;;;;20.48;6.63;;;;;;;;;;4986134;28;20034;-59
2023/09/11 11:08:15;;;;;;;16.73;6.57;;;;;;;;;;4984266;28;20037;-59
2023/09/11 11:10:44;;;;;;;25.23;6.50;;;;;;;;;;4983789;28;20030;-60
2023/09/11 11:13:11;;;;;;;21.75;6.85;;;;;;;;;;4988484;28;20085;-59
2023/09/11 11:15:37;;;;;;;18.42;7.00;;;;;;;;;;4983688;28;20170;-60
2023/09/11 11:18:06;;;;;;;26.88;7.40;;;;;;;;;;4983553;28;20034;-58
2023/09/11 11:20:32;;;;;;;16.48;6.40;;;;;;;;;;4986335;28;20372;-59
2023/09/11 11:23:06;;;;;;;21.48;6.80;;;;;;;;;;4988164;28;20101;-59
2023/09/11 11:25:32;;;;;;;20.65;6.50;;;;;;;;;;4987455;28;20030;-58
2023/09/11 11:28:01;;;;;;;24.50;6.53;;;;;;;;;;4986950;28;20631;-58
2023/09/11 11:30:27;;;;;;;14.40;6.30;;;;;;;;;;4982197;28;20500;-58
2023/09/11 11:32:54;;;;;;;15.95;5.85;;;;;;;;;;4988744;28;20099;-58
2023/09/11 11:35:20;;;;;;;20.75;6.43;;;;;;;;;;4984347;28;20033;-56
2023/09/11 11:37:46;;;;;;;23.55;6.75;;;;;;;;;;4987512;28;20121;-60
2023/09/11 11:40:14;;;;;;;18.55;7.10;;;;;;;;;;4986786;28;20060;-59
2023/09/11 11:42:41;;;;;;;24.10;6.65;;;;;;;;;;4984495;28;20042;-60
2023/09/11 11:45:07;;;;;;;14.35;6.43;;;;;;;;;;4988892;28;20113;-57
2023/09/11 11:47:33;;;;;;;17.60;6.57;;;;;;;;;;4982969;28;20073;-60
2023/09/11 11:50:10;;;;;;;16.67;6.68;;;;;;;;;;4981107;28;20033;-58
2023/09/11 11:52:36;;;;;;;15.90;6.75;;;;;;;;;;4981442;28;20042;-59
2023/09/11 11:55:02;;;;;;;21.83;6.85;;;;;;;;;;4984028;28;20078;-59
2023/09/11 11:57:29;;;;;;;28.25;6.57;;;;;;;;;;4984709;28;20049;-59
2023/09/11 11:59:55;;;;;;;20.60;6.05;;;;;;;;;;4983848;28;20105;-59
2023/09/11 12:02:25;;;;;;;13.30;6.32;;;;;;;;;;4982354;28;20109;-59
2023/09/11 12:04:53;;;;;;;19.80;6.70;;;;;;;;;;4985510;28;20026;-58
2023/09/11 12:07:20;;;;;;;15.70;5.93;;;;;;;;;;4981693;28;20029;-57
2023/09/11 12:09:46;;;;;;;28.80;6.80;;;;;;;;;;4979709;28;20093;-58
2023/09/11 12:12:12;;;;;;;25.05;7.78;;;;;;;;;;4982116;28;20432;-57
2023/09/11 12:14:39;;;;;;;23.98;7.40;;;;;;;;;;4981358;28;20089;-58
2023/09/11 12:17:09;;;;;;;19.95;6.25;;;;;;;;;;4983338;28;20030;-59
2023/09/11 12:19:34;;;;;;;21.02;7.47;;;;;;;;;;4985541;28;20041;-56
2023/09/11 12:22:00;;;;;;;21.60;7.35;;;;;;;;;;4986895;28;20035;-55
2023/09/11 12:24:27;;;;;;;18.27;6.60;;;;;;;;;;4979837;28;20501;-58
2023/09/11 12:26:53;;;;;;;20.67;7.18;;;;;;;;;;4985096;28;20042;-58
2023/09/11 12:29:19;;;;;;;27.38;8.02;;;;;;;;;;4982256;28;20034;-57
2023/09/11 12:31:45;;;;;;;24.40;7.70;;;;;;;;;;4976072;28;20392;-57
2023/09/11 12:34:11;;;;;;;26.35;8.00;;;;;;;;;;4979360;28;20026;-60
2023/09/11 12:36:37;;;;;;;26.38;6.85;;;;;;;;;;4980813;28;20034;-60
2023/09/11 12:39:05;;;;;;;23.85;7.53;;;;;;;;;;4979470;28;20022;-59
2023/09/11 12:41:31;;;;;;;22.75;6.90;;;;;;;;;;4984152;28;20049;-58
2023/09/11 12:43:57;;;;;;;18.90;7.47;;;;;;;;;;4990018;28;20812;-56
2023/09/11 12:46:24;;;;;;;20.95;6.95;;;;;;;;;;4985858;28;20110;-59
2023/09/11 12:48:51;;;;;;;22.52;6.65;;;;;;;;;;4978801;28;20057;-60
2023/09/11 12:51:17;;;;;;;23.90;6.80;;;;;;;;;;4982231;28;20026;-58
2023/09/11 12:53:45;;;;;;;21.20;7.57;;;;;;;;;;4983866;28;20044;-59
2023/09/11 12:56:13;;;;;;;16.73;6.57;;;;;;;;;;4981852;28;20080;-60
2023/09/11 12:58:39;;;;;;;14.43;6.35;;;;;;;;;;4974498;28;20130;-58
2023/09/11 13:01:05;;;;;;;16.23;6.63;;;;;;;;;;4983714;28;20156;-59
2023/09/11 13:03:32;;;;;;;20.20;6.57;;;;;;;;;;4978455;28;20033;-58